Tunquen — CA2993 — position and weather

sailwx.info

Track history (hours):
 
Tides and Currents Weather Stations Pressure Air Temp Water Temp Dewpoint Dewpoint Depression Visibility Wind Speed Wind Dir Waves Ship Positions

Tunquen

Last reported at 2018-Aug-14 05:19 UTC. Time now 2018-Aug-14 07:04 UTC.
Position S 32°47' W 071°31'.

Length 31 m; draft 4.5 m.

Type: Tug. MMSI: 725000736.

Date/timePositionNaut miles runAvg speedWind from/ knotsBaromVisibWave heightAir tempDewpointWater temp
2018-Aug-14 05:19S 32°47' W 071°31'0 0.0
2018-Aug-14 05:01S 32°47' W 071°31'0 0.0
2018-Aug-14 04:30S 32°47' W 071°31'0 0.0
2018-Aug-14 03:59S 32°47' W 071°31'0 0.0
2018-Aug-14 03:30S 32°47' W 071°31'0 0.0
2018-Aug-14 03:00S 32°47' W 071°31'0 0.0
2018-Aug-14 02:30S 32°47' W 071°31'0 0.0
2018-Aug-14 02:01S 32°47' W 071°31'0 0.0
2018-Aug-14 01:30S 32°47' W 071°31'0 0.0
2018-Aug-14 00:56S 32°47' W 071°31'0 0.0
2018-Aug-14 00:30S 32°47' W 071°31'0 0.0
2018-Aug-14 00:00S 32°47' W 071°31'0 0.1
2018-Aug-13 23:30S 32°47' W 071°31'3 4.3
2018-Aug-13 22:49S 32°48' W 071°34'3 9.2
2018-Aug-13 22:30S 32°51' W 071°34'5 9.3
2018-Aug-13 22:00S 32°56' W 071°36'4 9.0
2018-Aug-13 21:31S 33°00' W 071°37'2 4.6
2018-Aug-13 21:01S 33°02' W 071°37'0 0.1
2018-Aug-13 20:30S 33°02' W 071°37'0 0.1
2018-Aug-13 19:59S 33°02' W 071°37'0 0.0
2018-Aug-13 19:30S 33°02' W 071°37'0 0.0
2018-Aug-13 18:59S 33°02' W 071°37'0 0.0
2018-Aug-13 18:29S 33°02' W 071°37'0 0.0
2018-Aug-13 17:55S 33°02' W 071°37'0 0.0
2018-Aug-13 17:30S 33°02' W 071°37'0 0.1
2018-Aug-13 17:01S 33°02' W 071°37'0 0.8
2018-Aug-13 16:30S 33°02' W 071°38'1 1.4
2018-Aug-13 16:00S 33°02' W 071°37'1 1.4
2018-Aug-13 15:28S 33°02' W 071°38'3 1.6
2018-Aug-13 13:43S 32°60' W 071°36'2 8.7
2018-Aug-13 13:31S 32°58' W 071°36'4 8.6
2018-Aug-13 13:00S 32°53' W 071°36'4 8.6
2018-Aug-13 12:30S 32°49' W 071°34'4 2.4
2018-Aug-13 10:57S 32°47' W 071°31'0 0.0
2018-Aug-13 10:30S 32°47' W 071°31'0 0.0
2018-Aug-13 09:46S 32°47' W 071°31'0 0.0
2018-Aug-13 09:28S 32°47' W 071°31'0 0.0
2018-Aug-13 09:01S 32°47' W 071°31'0 0.0
2018-Aug-13 06:59S 32°47' W 071°31'0 0.0
2018-Aug-13 06:30S 32°47' W 071°31'0 0.0
2018-Aug-13 06:00S 32°47' W 071°31'0 0.0
2018-Aug-13 05:30S 32°47' W 071°31'0 0.0
2018-Aug-13 04:44S 32°47' W 071°31'0 0.0
2018-Aug-13 04:29S 32°47' W 071°31'0 0.0
2018-Aug-13 04:00S 32°47' W 071°31'0 0.0
2018-Aug-13 03:27S 32°47' W 071°31'0 0.0
2018-Aug-13 02:57S 32°47' W 071°31'0 0.0
2018-Aug-13 02:00S 32°47' W 071°31'0 0.0
2018-Aug-13 01:27S 32°47' W 071°31'0 0.0
2018-Aug-13 00:58S 32°47' W 071°31'0 0.0
2018-Aug-13 00:13S 32°47' W 071°31'0 0.0
2018-Aug-13 00:00S 32°47' W 071°31'0 0.0
2018-Aug-12 23:19S 32°47' W 071°31'0 0.0
2018-Aug-12 22:53S 32°47' W 071°31'0 0.0
2018-Aug-12 22:30S 32°47' W 071°31'0 0.0
2018-Aug-12 21:59S 32°47' W 071°31'0 0.0
2018-Aug-12 21:30S 32°47' W 071°31'0 0.0
2018-Aug-12 20:41S 32°47' W 071°31'0 0.0
2018-Aug-12 20:31S 32°47' W 071°31'0 0.0
2018-Aug-12 20:00S 32°47' W 071°31'0 0.0
2018-Aug-12 19:29S 32°47' W 071°31'0 0.0
2018-Aug-12 18:59S 32°47' W 071°31'0 0.0
2018-Aug-12 18:25S 32°47' W 071°31'0 0.0
2018-Aug-12 18:00S 32°47' W 071°31'0 0.0
2018-Aug-12 17:29S 32°47' W 071°31'0 0.0
2018-Aug-12 17:00S 32°47' W 071°31'0 0.0
2018-Aug-12 16:30S 32°47' W 071°31'0 0.0
2018-Aug-12 16:00S 32°47' W 071°31'0 0.0
2018-Aug-12 15:30S 32°47' W 071°31'0 0.0
2018-Aug-12 15:00S 32°47' W 071°31'0 0.0
2018-Aug-12 14:30S 32°47' W 071°31'0 0.0
2018-Aug-12 14:00S 32°47' W 071°31'0 0.0
2018-Aug-12 13:30S 32°47' W 071°31'0 0.0
2018-Aug-12 13:00S 32°47' W 071°31'0 0.0
2018-Aug-12 12:23S 32°47' W 071°31'0 0.0
2018-Aug-12 12:00S 32°47' W 071°31'0 0.0
2018-Aug-12 11:28S 32°47' W 071°31'0 0.0
2018-Aug-12 04:30S 32°47' W 071°31'3 1.2
2018-Aug-12 02:04S 32°48' W 071°34'1 8.9
2018-Aug-12 02:00S 32°49' W 071°34'4 8.6
2018-Aug-12 01:30S 32°53' W 071°35'4 8.4
2018-Aug-12 01:00S 32°57' W 071°36'6 9.3
2018-Aug-12 00:25S 33°02' W 071°37'0 0.1
2018-Aug-11 23:55S 33°02' W 071°37'0 0.0
2018-Aug-11 23:30S 33°02' W 071°37'0 0.0
2018-Aug-11 22:58S 33°02' W 071°37'0 0.0
2018-Aug-11 22:25S 33°02' W 071°37'0 0.0
2018-Aug-11 22:00S 33°02' W 071°37'0 0.0
2018-Aug-11 21:30S 33°02' W 071°37'0 0.0
2018-Aug-11 21:00S 33°02' W 071°37'0 0.0
2018-Aug-11 20:30S 33°02' W 071°37'0 0.0
2018-Aug-11 20:00S 33°02' W 071°37'0 0.0
2018-Aug-11 19:28S 33°02' W 071°37'0 0.0
2018-Aug-11 19:00S 33°02' W 071°37'0 0.0
2018-Aug-11 18:30S 33°02' W 071°37'0 0.0
2018-Aug-11 18:00S 33°02' W 071°37'0 0.0
2018-Aug-11 17:30S 33°02' W 071°37'0 0.0
2018-Aug-11 17:00S 33°02' W 071°37'0 0.0
2018-Aug-11 16:29S 33°02' W 071°37'0 0.0
2018-Aug-11 15:46S 33°02' W 071°37'0 0.0
2018-Aug-11 15:23S 33°02' W 071°37'0 0.1
2018-Aug-11 15:00S 33°02' W 071°37'0 0.0
2018-Aug-11 14:29S 33°02' W 071°37'0 0.0
2018-Aug-11 14:00S 33°02' W 071°37'0 0.0
2018-Aug-11 13:24S 33°02' W 071°37'0 0.0
2018-Aug-11 13:00S 33°02' W 071°37'0 0.0
2018-Aug-11 12:30S 33°02' W 071°37'0 0.0
2018-Aug-11 12:00S 33°02' W 071°37'0 0.0
2018-Aug-11 11:30S 33°02' W 071°37'0 0.0
2018-Aug-11 10:41S 33°02' W 071°37'0 0.0
2018-Aug-11 10:21S 33°02' W 071°37'0 0.0
2018-Aug-11 09:47S 33°02' W 071°37'0 0.0
2018-Aug-11 09:19S 33°02' W 071°37'0 0.0
2018-Aug-11 08:53S 33°02' W 071°37'0 0.0
2018-Aug-11 08:28S 33°02' W 071°37'0 0.0
2018-Aug-11 08:00S 33°02' W 071°37'0 0.0
2018-Aug-11 07:30S 33°02' W 071°37'0 0.0
2018-Aug-11 06:57S 33°02' W 071°37'0 0.0
2018-Aug-11 06:28S 33°02' W 071°37'0 0.0
2018-Aug-11 06:00S 33°02' W 071°37'0 0.0
2018-Aug-11 05:30S 33°02' W 071°37'0 0.0
2018-Aug-11 05:00S 33°02' W 071°37'0 0.0
2018-Aug-11 04:29S 33°02' W 071°37'0 0.0
2018-Aug-11 04:00S 33°02' W 071°37'0 0.0
2018-Aug-11 03:30S 33°02' W 071°37'0 0.0
2018-Aug-11 03:00S 33°02' W 071°37'0 0.0
2018-Aug-11 02:30S 33°02' W 071°37'0 0.0
2018-Aug-11 02:00S 33°02' W 071°37'0 0.0
2018-Aug-11 01:26S 33°02' W 071°37'0 0.0
2018-Aug-11 00:57S 33°02' W 071°37'0 0.0
2018-Aug-11 00:30S 33°02' W 071°37'0 0.0
2018-Aug-10 21:50S 33°02' W 071°37'0 0.0
2018-Aug-10 21:14S 33°02' W 071°37'0 0.0
2018-Aug-10 20:50S 33°02' W 071°37'0 0.0
2018-Aug-10 20:30S 33°02' W 071°37'0 0.0
2018-Aug-10 19:30S 33°02' W 071°37'0 0.0
2018-Aug-10 18:53S 33°02' W 071°37'0 0.0
2018-Aug-10 18:30S 33°02' W 071°37'0 0.0
2018-Aug-10 18:00S 33°02' W 071°37'0 0.0
2018-Aug-10 17:29S 33°02' W 071°37'0 0.6
2018-Aug-10 16:49S 33°02' W 071°38'2 0.9
2018-Aug-10 15:09S 33°01' W 071°37'210.0
2018-Aug-10 15:00S 32°59' W 071°36'5 9.9
2018-Aug-10 14:30S 32°54' W 071°36'510.0
2018-Aug-10 14:00S 32°50' W 071°34'4 8.0
2018-Aug-10 13:28S 32°46' W 071°32'1 1.7
2018-Aug-10 12:59S 32°47' W 071°31'0 0.0
2018-Aug-10 12:30S 32°47' W 071°31'0 0.0
2018-Aug-10 10:53S 32°47' W 071°31'0 0.0
2018-Aug-10 10:30S 32°47' W 071°31'0 0.0
2018-Aug-10 09:58S 32°47' W 071°31'0 0.0
2018-Aug-10 09:29S 32°47' W 071°31'0 0.0
2018-Aug-10 09:00S 32°47' W 071°31'0 0.0
2018-Aug-10 08:28S 32°47' W 071°31'0 0.0
2018-Aug-10 07:35S 32°47' W 071°31'0 0.0
2018-Aug-10 07:30S 32°47' W 071°31'0 0.0
2018-Aug-10 07:00S 32°47' W 071°31'0 0.0
2018-Aug-10 05:50S 32°47' W 071°31'8814.1
2018-Aug-09 23:36S 32°47' W 073°16'8867.5
2018-Aug-09 22:18S 32°47' W 071°31'0 0.0
2018-Aug-09 21:53S 32°47' W 071°31'0 0.0
2018-Aug-09 21:30S 32°47' W 071°31'0 0.0
2018-Aug-09 20:58S 32°47' W 071°31'0 0.0
2018-Aug-09 19:25S 32°47' W 071°31'2 5.2
2018-Aug-09 18:59S 32°47' W 071°34'4 8.8
2018-Aug-09 18:30S 32°51' W 071°35'4 8.8
2018-Aug-09 18:00S 32°56' W 071°36'7 8.7
2018-Aug-09 17:15S 33°02' W 071°37'0 1.3
2018-Aug-09 17:00S 33°02' W 071°38'1 0.1
2018-Aug-09 11:04S 33°02' W 071°37'0 2.3
2018-Aug-09 10:59S 33°02' W 071°37'0 0.0
2018-Aug-08 23:23S 33°02' W 071°37'0 0.0
2018-Aug-08 22:54S 33°02' W 071°37'0 0.0
2018-Aug-08 22:25S 33°02' W 071°37'0 0.0
2018-Aug-08 21:36S 33°02' W 071°37'0 0.0
2018-Aug-08 21:24S 33°02' W 071°37'0 0.0
2018-Aug-08 11:41S 33°02' W 071°37'0 0.0
2018-Aug-08 11:30S 33°02' W 071°37'0 0.0
2018-Aug-08 11:00S 33°02' W 071°37'0 0.0
2018-Aug-08 00:00S 33°02' W 071°37'0 0.0
2018-Aug-07 23:23S 33°02' W 071°37'0 0.0
2018-Aug-07 22:57S 33°02' W 071°37'0 0.0
2018-Aug-07 22:12S 33°02' W 071°37'0 0.0
2018-Aug-07 22:00S 33°02' W 071°37'0 0.0
2018-Aug-07 21:30S 33°02' W 071°37'0 0.0
2018-Aug-07 16:38S 33°02' W 071°37'0 0.0
2018-Aug-07 14:56S 33°02' W 071°37'0 0.0
2018-Aug-07 14:30S 33°02' W 071°37'0 0.0
2018-Aug-07 13:55S 33°02' W 071°37'0 0.0
2018-Aug-07 13:28S 33°02' W 071°37'0 0.0
2018-Aug-07 12:47S 33°02' W 071°37'0 0.0
2018-Aug-07 12:26S 33°02' W 071°37'0 0.0
2018-Aug-07 12:00S 33°02' W 071°37'0 0.0
2018-Aug-07 11:30S 33°02' W 071°37'0 0.0
2018-Aug-07 10:59S 33°02' W 071°37'0 0.0
2018-Aug-07 10:29S 33°02' W 071°37'0 0.0
2018-Aug-07 09:58S 33°02' W 071°37'0 0.0
2018-Aug-07 09:30S 33°02' W 071°37'0 0.0
2018-Aug-07 09:00S 33°02' W 071°37'0 0.0
2018-Aug-07 08:28S 33°02' W 071°37'0 0.0
2018-Aug-07 08:00S 33°02' W 071°37'0 0.0
2018-Aug-07 07:29S 33°02' W 071°37'0 0.0
2018-Aug-07 07:00S 33°02' W 071°37'0 0.0
2018-Aug-07 06:29S 33°02' W 071°37'0 0.1
2018-Aug-07 06:00S 33°02' W 071°37'1 0.1
2018-Aug-07 01:55S 33°02' W 071°37'0 0.4
2018-Aug-07 01:02S 33°02' W 071°37'0 0.2
2018-Aug-07 00:54S 33°02' W 071°37'3 1.0
2018-Aug-06 21:58S 32°59' W 071°36'4 8.7
2018-Aug-06 21:30S 32°55' W 071°36'4 8.6
2018-Aug-06 21:00S 32°51' W 071°35'4 8.3
2018-Aug-06 20:28S 32°47' W 071°34'2 0.7
2018-Aug-06 17:29S 32°47' W 071°31'0 0.0
2018-Aug-06 17:00S 32°47' W 071°31'0 0.0
2018-Aug-06 16:27S 32°47' W 071°31'0 0.0
2018-Aug-06 12:09S 32°47' W 071°31'0 0.0
2018-Aug-06 11:32S 32°47' W 071°31'0 0.0
2018-Aug-06 11:29S 32°47' W 071°31'0 0.0
2018-Aug-06 10:57S 32°47' W 071°31'0 0.0
2018-Aug-06 10:15S 32°47' W 071°31'0 0.0
2018-Aug-06 00:29S 32°47' W 071°31'0 0.0
2018-Aug-05 21:55S 32°47' W 071°31'0 0.0
2018-Aug-05 21:24S 32°47' W 071°31'0 0.0
2018-Aug-05 21:00S 32°47' W 071°31'0 0.0
2018-Aug-05 20:30S 32°47' W 071°31'0 0.0
2018-Aug-05 19:59S 32°47' W 071°31'0 0.0
2018-Aug-05 19:28S 32°47' W 071°31'0 0.0
2018-Aug-05 19:00S 32°47' W 071°31'0 0.0
2018-Aug-05 18:27S 32°47' W 071°31'0 0.0
2018-Aug-05 18:00S 32°47' W 071°31'0 0.0
2018-Aug-05 17:30S 32°47' W 071°31'0 0.0
2018-Aug-05 17:00S 32°47' W 071°31'0 0.0
2018-Aug-05 16:30S 32°47' W 071°31'0 0.0
2018-Aug-05 15:59S 32°47' W 071°31'0 0.0
2018-Aug-05 15:27S 32°47' W 071°31'0 0.0
2018-Aug-05 14:56S 32°47' W 071°31'0 0.0
2018-Aug-05 14:18S 32°47' W 071°31'0 0.0
2018-Aug-05 13:19S 32°47' W 071°31'0 0.0
2018-Aug-05 13:00S 32°47' W 071°31'0 0.0
2018-Aug-05 11:52S 32°47' W 071°31'0 0.0
2018-Aug-05 11:30S 32°47' W 071°31'0 0.0
2018-Aug-05 10:41S 32°47' W 071°31'0 0.0
2018-Aug-05 10:30S 32°47' W 071°31'0 0.0
2018-Aug-05 09:31S 32°47' W 071°31'0 0.0
2018-Aug-05 07:21S 32°47' W 071°31'1 0.9
2018-Aug-05 06:24S 32°46' W 071°30'0 0.2
2018-Aug-05 05:54S 32°46' W 071°30'1 1.6
2018-Aug-05 05:19S 32°47' W 071°31'0 0.0
2018-Aug-05 05:00S 32°47' W 071°31'0 0.0
2018-Aug-05 00:05S 32°47' W 071°31'0 0.1
2018-Aug-04 23:57S 32°47' W 071°31'0 0.0
2018-Aug-04 23:30S 32°47' W 071°31'0 0.0
2018-Aug-04 23:00S 32°47' W 071°31'0 0.0
2018-Aug-04 22:30S 32°47' W 071°31'0 0.0
2018-Aug-04 22:00S 32°47' W 071°31'0 0.0
2018-Aug-04 21:30S 32°47' W 071°31'0 0.0
2018-Aug-04 21:01S 32°47' W 071°31'0 0.0
2018-Aug-04 20:30S 32°47' W 071°31'0 0.0
2018-Aug-04 20:01S 32°47' W 071°31'0 0.0
2018-Aug-04 19:29S 32°47' W 071°31'0 0.0
2018-Aug-04 19:01S 32°47' W 071°31'0 0.0
2018-Aug-04 18:30S 32°47' W 071°31'0 0.0
2018-Aug-04 18:00S 32°47' W 071°31'0 0.0
2018-Aug-04 17:30S 32°47' W 071°31'0 0.0
2018-Aug-04 17:00S 32°47' W 071°31'0 0.0
2018-Aug-04 16:30S 32°47' W 071°31'1 2.4
2018-Aug-04 16:00S 32°46' W 071°30'0 0.0
2018-Aug-04 15:30S 32°46' W 071°30'0 0.3
2018-Aug-04 15:00S 32°46' W 071°30'1 1.7
2018-Aug-04 14:30S 32°45' W 071°31'1 2.2
2018-Aug-04 13:54S 32°47' W 071°31'0 0.0
2018-Aug-04 13:29S 32°47' W 071°31'0 0.0
2018-Aug-04 12:57S 32°47' W 071°31'0 0.0
2018-Aug-04 12:31S 32°47' W 071°31'0 0.0
2018-Aug-04 12:00S 32°47' W 071°31'0 0.0
2018-Aug-04 11:29S 32°47' W 071°31'0 0.0
2018-Aug-04 11:00S 32°47' W 071°31'0 0.0
2018-Aug-04 08:15S 32°47' W 071°31'0 0.0
2018-Aug-04 07:54S 32°47' W 071°31'0 0.0
2018-Aug-04 06:31S 32°47' W 071°31'  
Track history (hours):
 
Tides and Currents Weather Stations Pressure Air Temp Water Temp Dewpoint Dewpoint Depression Visibility Wind Speed Wind Dir Waves Ship Positions

Tunquen

Last reported at 2018-Aug-14 05:19 UTC. Time now 2018-Aug-14 07:04 UTC.
Position S 32°47' W 071°31'.

Length 31 m; draft 4.5 m.

Type: Tug. MMSI: 725000736.

Date/timePositionNaut miles runAvg speedWind from/ knotsBaromVisibWave heightAir tempDewpointWater temp
2018-Aug-14 05:19S 32°47' W 071°31'0 0.0
2018-Aug-14 05:01S 32°47' W 071°31'0 0.0
2018-Aug-14 04:30S 32°47' W 071°31'0 0.0
2018-Aug-14 03:59S 32°47' W 071°31'0 0.0
2018-Aug-14 03:30S 32°47' W 071°31'0 0.0
2018-Aug-14 03:00S 32°47' W 071°31'0 0.0
2018-Aug-14 02:30S 32°47' W 071°31'0 0.0
2018-Aug-14 02:01S 32°47' W 071°31'0 0.0
2018-Aug-14 01:30S 32°47' W 071°31'0 0.0
2018-Aug-14 00:56S 32°47' W 071°31'0 0.0
2018-Aug-14 00:30S 32°47' W 071°31'0 0.0
2018-Aug-14 00:00S 32°47' W 071°31'0 0.1
2018-Aug-13 23:30S 32°47' W 071°31'3 4.3
2018-Aug-13 22:49S 32°48' W 071°34'3 9.2
2018-Aug-13 22:30S 32°51' W 071°34'5 9.3
2018-Aug-13 22:00S 32°56' W 071°36'4 9.0
2018-Aug-13 21:31S 33°00' W 071°37'2 4.6
2018-Aug-13 21:01S 33°02' W 071°37'0 0.1
2018-Aug-13 20:30S 33°02' W 071°37'0 0.1
2018-Aug-13 19:59S 33°02' W 071°37'0 0.0
2018-Aug-13 19:30S 33°02' W 071°37'0 0.0
2018-Aug-13 18:59S 33°02' W 071°37'0 0.0
2018-Aug-13 18:29S 33°02' W 071°37'0 0.0
2018-Aug-13 17:55S 33°02' W 071°37'0 0.0
2018-Aug-13 17:30S 33°02' W 071°37'0 0.1
2018-Aug-13 17:01S 33°02' W 071°37'0 0.8
2018-Aug-13 16:30S 33°02' W 071°38'1 1.4
2018-Aug-13 16:00S 33°02' W 071°37'1 1.4
2018-Aug-13 15:28S 33°02' W 071°38'3 1.6
2018-Aug-13 13:43S 32°60' W 071°36'2 8.7
2018-Aug-13 13:31S 32°58' W 071°36'4 8.6
2018-Aug-13 13:00S 32°53' W 071°36'4 8.6
2018-Aug-13 12:30S 32°49' W 071°34'4 2.4
2018-Aug-13 10:57S 32°47' W 071°31'0 0.0
2018-Aug-13 10:30S 32°47' W 071°31'0 0.0
2018-Aug-13 09:46S 32°47' W 071°31'0 0.0
2018-Aug-13 09:28S 32°47' W 071°31'0 0.0
2018-Aug-13 09:01S 32°47' W 071°31'0 0.0
2018-Aug-13 06:59S 32°47' W 071°31'0 0.0
2018-Aug-13 06:30S 32°47' W 071°31'0 0.0
2018-Aug-13 06:00S 32°47' W 071°31'0 0.0
2018-Aug-13 05:30S 32°47' W 071°31'0 0.0
2018-Aug-13 04:44S 32°47' W 071°31'0 0.0
2018-Aug-13 04:29S 32°47' W 071°31'0 0.0
2018-Aug-13 04:00S 32°47' W 071°31'0 0.0
2018-Aug-13 03:27S 32°47' W 071°31'0 0.0
2018-Aug-13 02:57S 32°47' W 071°31'0 0.0
2018-Aug-13 02:00S 32°47' W 071°31'0 0.0
2018-Aug-13 01:27S 32°47' W 071°31'0 0.0
2018-Aug-13 00:58S 32°47' W 071°31'0 0.0
2018-Aug-13 00:13S 32°47' W 071°31'0 0.0
2018-Aug-13 00:00S 32°47' W 071°31'0 0.0
2018-Aug-12 23:19S 32°47' W 071°31'0 0.0
2018-Aug-12 22:53S 32°47' W 071°31'0 0.0
2018-Aug-12 22:30S 32°47' W 071°31'0 0.0
2018-Aug-12 21:59S 32°47' W 071°31'0 0.0
2018-Aug-12 21:30S 32°47' W 071°31'0 0.0
2018-Aug-12 20:41S 32°47' W 071°31'0 0.0
2018-Aug-12 20:31S 32°47' W 071°31'0 0.0
2018-Aug-12 20:00S 32°47' W 071°31'0 0.0
2018-Aug-12 19:29S 32°47' W 071°31'0 0.0
2018-Aug-12 18:59S 32°47' W 071°31'0 0.0
2018-Aug-12 18:25S 32°47' W 071°31'0 0.0
2018-Aug-12 18:00S 32°47' W 071°31'0 0.0
2018-Aug-12 17:29S 32°47' W 071°31'0 0.0
2018-Aug-12 17:00S 32°47' W 071°31'0 0.0
2018-Aug-12 16:30S 32°47' W 071°31'0 0.0
2018-Aug-12 16:00S 32°47' W 071°31'0 0.0
2018-Aug-12 15:30S 32°47' W 071°31'0 0.0
2018-Aug-12 15:00S 32°47' W 071°31'0 0.0
2018-Aug-12 14:30S 32°47' W 071°31'0 0.0
2018-Aug-12 14:00S 32°47' W 071°31'0 0.0
2018-Aug-12 13:30S 32°47' W 071°31'0 0.0
2018-Aug-12 13:00S 32°47' W 071°31'0 0.0
2018-Aug-12 12:23S 32°47' W 071°31'0 0.0
2018-Aug-12 12:00S 32°47' W 071°31'0 0.0
2018-Aug-12 11:28S 32°47' W 071°31'0 0.0
2018-Aug-12 04:30S 32°47' W 071°31'3 1.2
2018-Aug-12 02:04S 32°48' W 071°34'1 8.9
2018-Aug-12 02:00S 32°49' W 071°34'4 8.6
2018-Aug-12 01:30S 32°53' W 071°35'4 8.4
2018-Aug-12 01:00S 32°57' W 071°36'6 9.3
2018-Aug-12 00:25S 33°02' W 071°37'0 0.1
2018-Aug-11 23:55S 33°02' W 071°37'0 0.0
2018-Aug-11 23:30S 33°02' W 071°37'0 0.0
2018-Aug-11 22:58S 33°02' W 071°37'0 0.0
2018-Aug-11 22:25S 33°02' W 071°37'0 0.0
2018-Aug-11 22:00S 33°02' W 071°37'0 0.0
2018-Aug-11 21:30S 33°02' W 071°37'0 0.0
2018-Aug-11 21:00S 33°02' W 071°37'0 0.0
2018-Aug-11 20:30S 33°02' W 071°37'0 0.0
2018-Aug-11 20:00S 33°02' W 071°37'0 0.0
2018-Aug-11 19:28S 33°02' W 071°37'0 0.0
2018-Aug-11 19:00S 33°02' W 071°37'0 0.0
2018-Aug-11 18:30S 33°02' W 071°37'0 0.0
2018-Aug-11 18:00S 33°02' W 071°37'0 0.0
2018-Aug-11 17:30S 33°02' W 071°37'0 0.0
2018-Aug-11 17:00S 33°02' W 071°37'0 0.0
2018-Aug-11 16:29S 33°02' W 071°37'0 0.0
2018-Aug-11 15:46S 33°02' W 071°37'0 0.0
2018-Aug-11 15:23S 33°02' W 071°37'0 0.1
2018-Aug-11 15:00S 33°02' W 071°37'0 0.0
2018-Aug-11 14:29S 33°02' W 071°37'0 0.0
2018-Aug-11 14:00S 33°02' W 071°37'0 0.0
2018-Aug-11 13:24S 33°02' W 071°37'0 0.0
2018-Aug-11 13:00S 33°02' W 071°37'0 0.0
2018-Aug-11 12:30S 33°02' W 071°37'0 0.0
2018-Aug-11 12:00S 33°02' W 071°37'0 0.0
2018-Aug-11 11:30S 33°02' W 071°37'0 0.0
2018-Aug-11 10:41S 33°02' W 071°37'0 0.0
2018-Aug-11 10:21S 33°02' W 071°37'0 0.0
2018-Aug-11 09:47S 33°02' W 071°37'0 0.0
2018-Aug-11 09:19S 33°02' W 071°37'0 0.0
2018-Aug-11 08:53S 33°02' W 071°37'0 0.0
2018-Aug-11 08:28S 33°02' W 071°37'0 0.0
2018-Aug-11 08:00S 33°02' W 071°37'0 0.0
2018-Aug-11 07:30S 33°02' W 071°37'0 0.0
2018-Aug-11 06:57S 33°02' W 071°37'0 0.0
2018-Aug-11 06:28S 33°02' W 071°37'0 0.0
2018-Aug-11 06:00S 33°02' W 071°37'0 0.0
2018-Aug-11 05:30S 33°02' W 071°37'0 0.0
2018-Aug-11 05:00S 33°02' W 071°37'0 0.0
2018-Aug-11 04:29S 33°02' W 071°37'0 0.0
2018-Aug-11 04:00S 33°02' W 071°37'0 0.0
2018-Aug-11 03:30S 33°02' W 071°37'0 0.0
2018-Aug-11 03:00S 33°02' W 071°37'0 0.0
2018-Aug-11 02:30S 33°02' W 071°37'0 0.0
2018-Aug-11 02:00S 33°02' W 071°37'0 0.0
2018-Aug-11 01:26S 33°02' W 071°37'0 0.0
2018-Aug-11 00:57S 33°02' W 071°37'0 0.0
2018-Aug-11 00:30S 33°02' W 071°37'0 0.0
2018-Aug-10 21:50S 33°02' W 071°37'0 0.0
2018-Aug-10 21:14S 33°02' W 071°37'0 0.0
2018-Aug-10 20:50S 33°02' W 071°37'0 0.0
2018-Aug-10 20:30S 33°02' W 071°37'0 0.0
2018-Aug-10 19:30S 33°02' W 071°37'0 0.0
2018-Aug-10 18:53S 33°02' W 071°37'0 0.0
2018-Aug-10 18:30S 33°02' W 071°37'0 0.0
2018-Aug-10 18:00S 33°02' W 071°37'0 0.0
2018-Aug-10 17:29S 33°02' W 071°37'0 0.6
2018-Aug-10 16:49S 33°02' W 071°38'2 0.9
2018-Aug-10 15:09S 33°01' W 071°37'210.0
2018-Aug-10 15:00S 32°59' W 071°36'5 9.9
2018-Aug-10 14:30S 32°54' W 071°36'510.0
2018-Aug-10 14:00S 32°50' W 071°34'4 8.0
2018-Aug-10 13:28S 32°46' W 071°32'1 1.7
2018-Aug-10 12:59S 32°47' W 071°31'0 0.0
2018-Aug-10 12:30S 32°47' W 071°31'0 0.0
2018-Aug-10 10:53S 32°47' W 071°31'0 0.0
2018-Aug-10 10:30S 32°47' W 071°31'0 0.0
2018-Aug-10 09:58S 32°47' W 071°31'0 0.0
2018-Aug-10 09:29S 32°47' W 071°31'0 0.0
2018-Aug-10 09:00S 32°47' W 071°31'0 0.0
2018-Aug-10 08:28S 32°47' W 071°31'0 0.0
2018-Aug-10 07:35S 32°47' W 071°31'0 0.0
2018-Aug-10 07:30S 32°47' W 071°31'0 0.0
2018-Aug-10 07:00S 32°47' W 071°31'0 0.0
2018-Aug-10 05:50S 32°47' W 071°31'8814.1
2018-Aug-09 23:36S 32°47' W 073°16'8867.5
2018-Aug-09 22:18S 32°47' W 071°31'0 0.0
2018-Aug-09 21:53S 32°47' W 071°31'0 0.0
2018-Aug-09 21:30S 32°47' W 071°31'0 0.0
2018-Aug-09 20:58S 32°47' W 071°31'0 0.0
2018-Aug-09 19:25S 32°47' W 071°31'2 5.2
2018-Aug-09 18:59S 32°47' W 071°34'4 8.8
2018-Aug-09 18:30S 32°51' W 071°35'4 8.8
2018-Aug-09 18:00S 32°56' W 071°36'7 8.7
2018-Aug-09 17:15S 33°02' W 071°37'0 1.3
2018-Aug-09 17:00S 33°02' W 071°38'1 0.1
2018-Aug-09 11:04S 33°02' W 071°37'0 2.3
2018-Aug-09 10:59S 33°02' W 071°37'0 0.0
2018-Aug-08 23:23S 33°02' W 071°37'0 0.0
2018-Aug-08 22:54S 33°02' W 071°37'0 0.0
2018-Aug-08 22:25S 33°02' W 071°37'0 0.0
2018-Aug-08 21:36S 33°02' W 071°37'0 0.0
2018-Aug-08 21:24S 33°02' W 071°37'0 0.0
2018-Aug-08 11:41S 33°02' W 071°37'0 0.0
2018-Aug-08 11:30S 33°02' W 071°37'0 0.0
2018-Aug-08 11:00S 33°02' W 071°37'0 0.0
2018-Aug-08 00:00S 33°02' W 071°37'0 0.0
2018-Aug-07 23:23S 33°02' W 071°37'0 0.0
2018-Aug-07 22:57S 33°02' W 071°37'0 0.0
2018-Aug-07 22:12S 33°02' W 071°37'0 0.0
2018-Aug-07 22:00S 33°02' W 071°37'0 0.0
2018-Aug-07 21:30S 33°02' W 071°37'0 0.0
2018-Aug-07 16:38S 33°02' W 071°37'0 0.0
2018-Aug-07 14:56S 33°02' W 071°37'0 0.0
2018-Aug-07 14:30S 33°02' W 071°37'0 0.0
2018-Aug-07 13:55S 33°02' W 071°37'0 0.0
2018-Aug-07 13:28S 33°02' W 071°37'0 0.0
2018-Aug-07 12:47S 33°02' W 071°37'0 0.0
2018-Aug-07 12:26S 33°02' W 071°37'0 0.0
2018-Aug-07 12:00S 33°02' W 071°37'0 0.0
2018-Aug-07 11:30S 33°02' W 071°37'0 0.0
2018-Aug-07 10:59S 33°02' W 071°37'0 0.0
2018-Aug-07 10:29S 33°02' W 071°37'0 0.0
2018-Aug-07 09:58S 33°02' W 071°37'0 0.0
2018-Aug-07 09:30S 33°02' W 071°37'0 0.0
2018-Aug-07 09:00S 33°02' W 071°37'0 0.0
2018-Aug-07 08:28S 33°02' W 071°37'0 0.0
2018-Aug-07 08:00S 33°02' W 071°37'0 0.0
2018-Aug-07 07:29S 33°02' W 071°37'0 0.0
2018-Aug-07 07:00S 33°02' W 071°37'0 0.0
2018-Aug-07 06:29S 33°02' W 071°37'0 0.1
2018-Aug-07 06:00S 33°02' W 071°37'1 0.1
2018-Aug-07 01:55S 33°02' W 071°37'0 0.4
2018-Aug-07 01:02S 33°02' W 071°37'0 0.2
2018-Aug-07 00:54S 33°02' W 071°37'3 1.0
2018-Aug-06 21:58S 32°59' W 071°36'4 8.7
2018-Aug-06 21:30S 32°55' W 071°36'4 8.6
2018-Aug-06 21:00S 32°51' W 071°35'4 8.3
2018-Aug-06 20:28S 32°47' W 071°34'2 0.7
2018-Aug-06 17:29S 32°47' W 071°31'0 0.0
2018-Aug-06 17:00S 32°47' W 071°31'0 0.0
2018-Aug-06 16:27S 32°47' W 071°31'0 0.0
2018-Aug-06 12:09S 32°47' W 071°31'0 0.0
2018-Aug-06 11:32S 32°47' W 071°31'0 0.0
2018-Aug-06 11:29S 32°47' W 071°31'0 0.0
2018-Aug-06 10:57S 32°47' W 071°31'0 0.0
2018-Aug-06 10:15S 32°47' W 071°31'0 0.0
2018-Aug-06 00:29S 32°47' W 071°31'0 0.0
2018-Aug-05 21:55S 32°47' W 071°31'0 0.0
2018-Aug-05 21:24S 32°47' W 071°31'0 0.0
2018-Aug-05 21:00S 32°47' W 071°31'0 0.0
2018-Aug-05 20:30S 32°47' W 071°31'0 0.0
2018-Aug-05 19:59S 32°47' W 071°31'0 0.0
2018-Aug-05 19:28S 32°47' W 071°31'0 0.0
2018-Aug-05 19:00S 32°47' W 071°31'0 0.0
2018-Aug-05 18:27S 32°47' W 071°31'0 0.0
2018-Aug-05 18:00S 32°47' W 071°31'0 0.0
2018-Aug-05 17:30S 32°47' W 071°31'0 0.0
2018-Aug-05 17:00S 32°47' W 071°31'0 0.0
2018-Aug-05 16:30S 32°47' W 071°31'0 0.0
2018-Aug-05 15:59S 32°47' W 071°31'0 0.0
2018-Aug-05 15:27S 32°47' W 071°31'0 0.0
2018-Aug-05 14:56S 32°47' W 071°31'0 0.0
2018-Aug-05 14:18S 32°47' W 071°31'0 0.0
2018-Aug-05 13:19S 32°47' W 071°31'0 0.0
2018-Aug-05 13:00S 32°47' W 071°31'0 0.0
2018-Aug-05 11:52S 32°47' W 071°31'0 0.0
2018-Aug-05 11:30S 32°47' W 071°31'0 0.0
2018-Aug-05 10:41S 32°47' W 071°31'0 0.0
2018-Aug-05 10:30S 32°47' W 071°31'0 0.0
2018-Aug-05 09:31S 32°47' W 071°31'0 0.0
2018-Aug-05 07:21S 32°47' W 071°31'1 0.9
2018-Aug-05 06:24S 32°46' W 071°30'0 0.2
2018-Aug-05 05:54S 32°46' W 071°30'1 1.6
2018-Aug-05 05:19S 32°47' W 071°31'0 0.0
2018-Aug-05 05:00S 32°47' W 071°31'0 0.0
2018-Aug-05 00:05S 32°47' W 071°31'0 0.1
2018-Aug-04 23:57S 32°47' W 071°31'0 0.0
2018-Aug-04 23:30S 32°47' W 071°31'0 0.0
2018-Aug-04 23:00S 32°47' W 071°31'0 0.0
2018-Aug-04 22:30S 32°47' W 071°31'0 0.0
2018-Aug-04 22:00S 32°47' W 071°31'0 0.0
2018-Aug-04 21:30S 32°47' W 071°31'0 0.0
2018-Aug-04 21:01S 32°47' W 071°31'0 0.0
2018-Aug-04 20:30S 32°47' W 071°31'0 0.0
2018-Aug-04 20:01S 32°47' W 071°31'0 0.0
2018-Aug-04 19:29S 32°47' W 071°31'0 0.0
2018-Aug-04 19:01S 32°47' W 071°31'0 0.0
2018-Aug-04 18:30S 32°47' W 071°31'0 0.0
2018-Aug-04 18:00S 32°47' W 071°31'0 0.0
2018-Aug-04 17:30S 32°47' W 071°31'0 0.0
2018-Aug-04 17:00S 32°47' W 071°31'0 0.0
2018-Aug-04 16:30S 32°47' W 071°31'1 2.4
2018-Aug-04 16:00S 32°46' W 071°30'0 0.0
2018-Aug-04 15:30S 32°46' W 071°30'0 0.3
2018-Aug-04 15:00S 32°46' W 071°30'1 1.7
2018-Aug-04 14:30S 32°45' W 071°31'1 2.2
2018-Aug-04 13:54S 32°47' W 071°31'0 0.0
2018-Aug-04 13:29S 32°47' W 071°31'0 0.0
2018-Aug-04 12:57S 32°47' W 071°31'0 0.0
2018-Aug-04 12:31S 32°47' W 071°31'0 0.0
2018-Aug-04 12:00S 32°47' W 071°31'0 0.0
2018-Aug-04 11:29S 32°47' W 071°31'0 0.0
2018-Aug-04 11:00S 32°47' W 071°31'0 0.0
2018-Aug-04 08:15S 32°47' W 071°31'0 0.0
2018-Aug-04 07:54S 32°47' W 071°31'0 0.0
2018-Aug-04 06:31S 32°47' W 071°31'  

Dump ship's entire track history